createdAt,value
2019-03-31T00:01:53.959Z,68.00
2019-03-31T00:04:23.797Z,67.90
2019-03-31T00:06:53.686Z,67.40
2019-03-31T00:09:24.047Z,67.90
2019-03-31T00:11:53.952Z,68.40
2019-03-31T00:14:23.881Z,68.20
2019-03-31T00:16:53.760Z,68.00
2019-03-31T00:19:23.590Z,68.20
2019-03-31T00:21:54.517Z,67.90
2019-03-31T00:24:24.421Z,68.30
2019-03-31T00:26:54.273Z,68.30
2019-03-31T00:29:24.162Z,68.60
2019-03-31T00:31:53.989Z,68.70
2019-03-31T00:34:23.864Z,69.80
2019-03-31T00:36:53.752Z,68.80
2019-03-31T00:39:23.593Z,68.10
2019-03-31T00:41:53.514Z,68.40
2019-03-31T00:44:23.475Z,68.50
2019-03-31T00:46:53.305Z,69.00
2019-03-31T00:49:23.202Z,70.00
2019-03-31T00:51:53.046Z,69.20
2019-03-31T00:54:22.913Z,69.10
2019-03-31T00:56:52.828Z,69.30
2019-03-31T00:59:22.711Z,68.90
2019-03-31T01:01:56.310Z,69.10
2019-03-31T01:04:29.981Z,69.40
2019-03-31T01:07:00.383Z,69.60
2019-03-31T01:09:32.465Z,69.70
2019-03-31T01:12:05.177Z,69.70
2019-03-31T01:14:35.410Z,70.70
2019-03-31T01:17:08.773Z,70.30
2019-03-31T01:19:39.019Z,70.60
2019-03-31T01:22:09.093Z,70.70
2019-03-31T01:24:38.936Z,70.50
2019-03-31T01:27:11.026Z,70.20
2019-03-31T01:29:41.713Z,70.30
2019-03-31T01:32:12.233Z,70.60
2019-03-31T01:34:42.569Z,70.30
2019-03-31T01:37:12.906Z,70.80
2019-03-31T01:39:42.746Z,71.20
2019-03-31T01:42:12.651Z,70.80
2019-03-31T01:44:42.921Z,71.00
2019-03-31T01:47:12.924Z,72.20
2019-03-31T01:49:42.850Z,72.90
2019-03-31T01:52:12.765Z,72.30
2019-03-31T01:54:42.624Z,72.80
2019-03-31T01:57:12.520Z,73.10
2019-03-31T01:59:42.460Z,73.30
2019-03-31T02:02:16.553Z,73.00
2019-03-31T02:04:46.430Z,73.50
2019-03-31T02:07:16.270Z,73.30
2019-03-31T02:09:46.157Z,73.60
2019-03-31T02:12:16.078Z,73.50
2019-03-31T02:14:45.934Z,73.90
2019-03-31T02:17:15.823Z,73.80
2019-03-31T02:19:45.677Z,74.40
2019-03-31T02:22:15.848Z,74.30
2019-03-31T02:24:45.741Z,74.10
2019-03-31T02:27:15.571Z,73.90
2019-03-31T02:29:45.489Z,73.80
2019-03-31T02:32:23.975Z,73.60
2019-03-31T02:34:47.285Z,73.60
2019-03-31T02:37:17.219Z,73.10
2019-03-31T02:39:47.127Z,73.40
2019-03-31T02:42:16.966Z,73.30
2019-03-31T02:44:46.906Z,73.30
2019-03-31T02:47:16.796Z,72.80
2019-03-31T02:49:46.702Z,72.80
2019-03-31T02:52:16.592Z,74.00
2019-03-31T02:54:47.015Z,73.20
2019-03-31T02:57:19.082Z,76.50
2019-03-31T02:59:50.838Z,75.50
2019-03-31T03:02:40.129Z,74.70
2019-03-31T03:04:57.080Z,74.00
2019-03-31T03:07:29.564Z,73.60
2019-03-31T03:10:01.553Z,74.60
2019-03-31T03:12:35.315Z,73.40
2019-03-31T03:15:07.192Z,73.60
2019-03-31T03:17:37.106Z,73.70
2019-03-31T03:20:07.712Z,73.50
2019-03-31T03:22:37.613Z,73.40
2019-03-31T03:25:07.980Z,72.70
2019-03-31T03:27:37.821Z,73.10
2019-03-31T03:30:07.919Z,73.70
2019-03-31T03:32:37.977Z,73.90
2019-03-31T03:35:08.490Z,74.40
2019-03-31T03:37:38.437Z,74.50
2019-03-31T03:40:09.351Z,74.40
2019-03-31T03:42:39.278Z,74.50
2019-03-31T03:45:09.510Z,75.00
2019-03-31T03:47:39.397Z,75.30
2019-03-31T03:50:09.279Z,74.60
2019-03-31T03:52:39.152Z,74.70
2019-03-31T03:55:09.202Z,74.50
2019-03-31T03:57:39.161Z,75.00
2019-03-31T04:00:09.874Z,74.90
2019-03-31T04:02:39.757Z,75.90
2019-03-31T04:05:09.595Z,74.90
2019-03-31T04:07:39.470Z,74.40
2019-03-31T04:10:30.605Z,73.60
2019-03-31T04:13:00.497Z,73.60
2019-03-31T04:15:30.466Z,73.40
2019-03-31T04:18:00.295Z,73.20
2019-03-31T04:20:30.382Z,73.40
2019-03-31T04:23:00.219Z,73.00
2019-03-31T04:25:30.059Z,73.30
2019-03-31T04:28:00.042Z,73.50
2019-03-31T04:30:30.895Z,73.90
2019-03-31T04:33:00.848Z,73.90
2019-03-31T04:35:30.800Z,73.50
2019-03-31T04:38:00.698Z,74.10
2019-03-31T04:40:30.594Z,74.50
2019-03-31T04:43:00.506Z,75.40
2019-03-31T04:45:30.400Z,76.70
2019-03-31T04:48:00.231Z,76.10
2019-03-31T04:50:30.149Z,75.50
2019-03-31T04:53:00.072Z,75.00
2019-03-31T04:55:29.914Z,75.10
2019-03-31T04:57:59.793Z,75.20
2019-03-31T05:00:29.629Z,74.90
2019-03-31T05:02:59.518Z,75.10
2019-03-31T05:05:30.460Z,75.30
2019-03-31T05:08:00.292Z,75.20
2019-03-31T05:10:30.149Z,75.10
2019-03-31T05:13:00.027Z,75.60
2019-03-31T05:15:29.858Z,75.50
2019-03-31T05:17:59.753Z,76.40
2019-03-31T05:20:29.637Z,76.00
2019-03-31T05:22:59.529Z,74.90
2019-03-31T05:25:29.422Z,74.30
2019-03-31T05:27:59.257Z,74.30
2019-03-31T05:30:29.097Z,74.40
2019-03-31T05:32:59.034Z,75.70
2019-03-31T05:35:28.916Z,76.70
2019-03-31T05:37:58.797Z,76.00
2019-03-31T05:40:30.729Z,76.70
2019-03-31T05:43:00.262Z,76.60
2019-03-31T05:45:30.097Z,77.10
2019-03-31T05:47:59.987Z,76.40
2019-03-31T05:50:29.969Z,76.50
2019-03-31T05:53:00.177Z,76.40
2019-03-31T05:55:30.110Z,76.10
2019-03-31T05:57:59.974Z,75.40
2019-03-31T06:00:34.555Z,75.40
2019-03-31T06:03:04.444Z,75.30
2019-03-31T06:05:34.341Z,75.00
2019-03-31T06:08:04.313Z,76.80
2019-03-31T06:10:34.857Z,76.70
2019-03-31T06:13:04.770Z,77.50
2019-03-31T06:15:34.654Z,77.50
2019-03-31T06:18:04.941Z,77.00
2019-03-31T06:20:34.835Z,76.50
2019-03-31T06:23:05.143Z,76.80
2019-03-31T06:25:34.987Z,76.60
2019-03-31T06:28:04.878Z,77.30
2019-03-31T06:30:34.745Z,77.40
2019-03-31T06:33:06.715Z,78.00
2019-03-31T06:35:36.558Z,77.60
2019-03-31T06:38:06.473Z,77.80
2019-03-31T06:40:36.395Z,78.60
2019-03-31T06:43:07.271Z,78.10
2019-03-31T06:45:37.149Z,77.20
2019-03-31T06:48:07.125Z,75.70
2019-03-31T06:50:36.978Z,74.70
2019-03-31T06:53:06.975Z,73.80
2019-03-31T06:55:36.913Z,74.20
2019-03-31T06:58:07.917Z,71.60
2019-03-31T07:00:37.777Z,70.50
2019-03-31T07:03:08.727Z,70.40
2019-03-31T07:05:38.621Z,70.50
2019-03-31T07:08:08.580Z,69.90
2019-03-31T07:10:39.478Z,67.90
2019-03-31T07:13:09.436Z,68.10
2019-03-31T07:15:39.513Z,67.50
2019-03-31T07:18:09.589Z,67.10
2019-03-31T07:20:39.485Z,66.80
2019-03-31T07:23:09.489Z,66.00
2019-03-31T07:25:39.429Z,66.40
2019-03-31T07:28:09.394Z,65.30
2019-03-31T07:30:39.449Z,64.80
2019-03-31T07:33:09.321Z,63.90
2019-03-31T07:35:39.395Z,62.50
2019-03-31T07:38:09.416Z,61.90
2019-03-31T07:40:39.689Z,63.10
2019-03-31T07:43:10.225Z,61.90
2019-03-31T07:45:40.326Z,61.60
2019-03-31T07:48:10.306Z,61.60
2019-03-31T07:50:40.162Z,60.80
2019-03-31T07:53:10.145Z,59.80
2019-03-31T07:55:41.038Z,60.30
2019-03-31T07:58:10.973Z,60.60
2019-03-31T08:00:41.012Z,59.10
2019-03-31T08:03:10.926Z,58.70
2019-03-31T08:05:40.834Z,58.10
2019-03-31T08:08:10.721Z,58.00
2019-03-31T08:10:41.718Z,57.40
2019-03-31T08:13:11.717Z,57.70
2019-03-31T08:15:41.561Z,58.10
2019-03-31T08:18:11.521Z,57.90
2019-03-31T08:20:41.422Z,57.20
2019-03-31T08:23:11.368Z,57.20
2019-03-31T08:25:41.341Z,57.20
2019-03-31T08:28:11.315Z,56.60
2019-03-31T08:30:41.262Z,56.40
2019-03-31T08:33:11.266Z,56.30
2019-03-31T08:35:47.143Z,55.80
2019-03-31T08:38:12.862Z,56.30
2019-03-31T08:40:43.932Z,55.30
2019-03-31T08:43:14.877Z,53.70
2019-03-31T08:45:44.812Z,52.80
2019-03-31T08:48:14.771Z,53.60
2019-03-31T08:50:44.730Z,53.50
2019-03-31T08:53:14.638Z,53.10
2019-03-31T08:55:44.565Z,53.20
2019-03-31T08:58:15.451Z,53.10
2019-03-31T09:00:48.941Z,53.50
2019-03-31T09:03:19.075Z,52.70
2019-03-31T09:06:00.928Z,51.80
2019-03-31T09:08:21.414Z,52.50
2019-03-31T09:10:51.417Z,51.10
2019-03-31T09:13:22.365Z,50.80
2019-03-31T09:15:52.325Z,50.30
2019-03-31T09:18:22.219Z,50.00
2019-03-31T09:20:52.244Z,49.40
2019-03-31T09:23:22.176Z,49.20
2019-03-31T09:25:53.273Z,48.50
2019-03-31T09:28:23.170Z,48.00
2019-03-31T09:30:53.001Z,48.50
2019-03-31T09:33:22.876Z,49.00
2019-03-31T09:35:52.781Z,48.40
2019-03-31T09:38:22.717Z,48.10
2019-03-31T09:40:53.785Z,48.20
2019-03-31T09:43:23.678Z,47.30
2019-03-31T09:45:53.524Z,47.40
2019-03-31T09:48:24.582Z,48.00
2019-03-31T09:50:56.594Z,46.70
2019-03-31T09:53:26.209Z,46.50
2019-03-31T09:55:57.159Z,46.40
2019-03-31T09:58:28.240Z,46.20
2019-03-31T10:00:58.201Z,45.30
2019-03-31T10:03:28.095Z,44.80
2019-03-31T10:06:10.069Z,44.90
2019-03-31T10:08:30.134Z,44.60
2019-03-31T10:11:02.714Z,43.70
2019-03-31T10:13:31.663Z,44.10
2019-03-31T10:16:01.601Z,43.60
2019-03-31T10:18:31.437Z,43.70
2019-03-31T10:21:01.389Z,43.60
2019-03-31T10:23:31.225Z,42.50
2019-03-31T10:26:01.127Z,43.00
2019-03-31T10:28:30.971Z,42.30
2019-03-31T10:31:01.954Z,42.40
2019-03-31T10:33:32.855Z,42.50
2019-03-31T10:36:03.838Z,42.60
2019-03-31T10:38:33.825Z,41.00
2019-03-31T10:41:04.713Z,38.90
2019-03-31T10:43:35.686Z,39.80
2019-03-31T10:46:05.610Z,40.50
2019-03-31T10:48:35.596Z,42.70
2019-03-31T10:51:06.570Z,43.00
2019-03-31T10:53:36.474Z,42.30
2019-03-31T10:56:06.381Z,38.90
2019-03-31T10:58:36.273Z,39.80
2019-03-31T11:01:06.170Z,38.40
2019-03-31T11:03:36.074Z,39.10
2019-03-31T11:06:06.144Z,41.00
2019-03-31T11:08:36.040Z,37.40
2019-03-31T11:11:05.937Z,35.80
2019-03-31T11:13:35.904Z,35.50
2019-03-31T11:16:06.789Z,34.90
2019-03-31T11:18:36.718Z,35.60
2019-03-31T11:21:13.234Z,34.90
2019-03-31T11:23:43.136Z,35.20
2019-03-31T11:26:13.149Z,36.20
2019-03-31T11:28:43.113Z,37.70
2019-03-31T11:31:13.184Z,37.00
2019-03-31T11:33:43.213Z,35.60
2019-03-31T11:36:13.066Z,36.40
2019-03-31T11:38:43.170Z,36.40
2019-03-31T11:41:13.094Z,34.00
2019-03-31T11:43:43.013Z,33.20
2019-03-31T11:46:12.980Z,32.30
2019-03-31T11:48:43.914Z,36.00
2019-03-31T11:51:13.838Z,32.40
2019-03-31T11:53:43.701Z,31.20
2019-03-31T11:56:14.713Z,33.00
2019-03-31T11:58:44.652Z,33.20
2019-03-31T12:01:15.669Z,35.40
2019-03-31T12:03:45.601Z,33.80
2019-03-31T12:06:15.712Z,34.50
2019-03-31T12:08:45.850Z,34.10
2019-03-31T12:11:16.733Z,32.40
2019-03-31T12:13:47.627Z,34.00
2019-03-31T12:16:19.542Z,34.90
2019-03-31T12:18:49.468Z,33.80
2019-03-31T12:21:19.321Z,33.50
2019-03-31T12:23:49.260Z,34.80
2019-03-31T12:26:19.281Z,35.20
2019-03-31T12:28:49.434Z,33.70
2019-03-31T12:31:19.283Z,33.60
2019-03-31T12:33:49.202Z,30.30
2019-03-31T12:36:19.282Z,29.30
2019-03-31T12:38:49.120Z,29.00
2019-03-31T12:41:19.114Z,28.90
2019-03-31T12:43:48.987Z,28.10
2019-03-31T12:46:18.945Z,27.80
2019-03-31T12:48:48.967Z,28.50
2019-03-31T12:51:19.413Z,27.90
2019-03-31T12:53:51.102Z,28.00
2019-03-31T12:56:21.046Z,28.00
2019-03-31T12:58:50.953Z,27.20
2019-03-31T13:01:20.976Z,26.90
2019-03-31T13:03:50.886Z,26.30
2019-03-31T13:06:20.760Z,27.50
2019-03-31T13:08:51.754Z,29.00
2019-03-31T13:11:21.609Z,29.50
2019-03-31T13:13:51.521Z,29.70
2019-03-31T13:16:23.468Z,27.30
2019-03-31T13:18:53.709Z,27.80
2019-03-31T13:21:23.626Z,27.00
2019-03-31T13:23:53.584Z,27.30
2019-03-31T13:26:23.614Z,29.70
2019-03-31T13:28:54.503Z,28.70
2019-03-31T13:31:24.526Z,27.60
2019-03-31T13:33:55.392Z,26.80
2019-03-31T13:36:25.341Z,26.70
2019-03-31T13:38:55.283Z,25.90
2019-03-31T13:41:25.199Z,28.50
2019-03-31T13:43:55.060Z,28.40
2019-03-31T13:46:24.969Z,28.30
2019-03-31T13:48:54.809Z,27.30
2019-03-31T13:51:24.893Z,25.40
2019-03-31T13:53:55.430Z,26.50
2019-03-31T13:56:25.941Z,28.80
2019-03-31T13:58:57.445Z,29.10
2019-03-31T14:01:27.385Z,29.70
2019-03-31T14:03:57.349Z,23.30
2019-03-31T14:06:27.217Z,21.60
2019-03-31T14:08:57.166Z,19.10
2019-03-31T14:11:27.153Z,15.30
2019-03-31T14:13:58.159Z,13.50
2019-03-31T14:16:29.222Z,13.20
2019-03-31T14:18:59.286Z,12.00
2019-03-31T14:21:29.267Z,11.60
2019-03-31T14:23:59.229Z,13.70
2019-03-31T14:26:29.132Z,14.10
2019-03-31T14:29:00.079Z,16.70
2019-03-31T14:31:30.102Z,18.40
2019-03-31T14:34:00.421Z,19.90
2019-03-31T14:36:30.682Z,19.30
2019-03-31T14:39:00.656Z,20.20
2019-03-31T14:41:30.481Z,21.60
2019-03-31T14:44:00.398Z,23.40
2019-03-31T14:46:30.240Z,23.40
2019-03-31T14:49:00.109Z,23.70
2019-03-31T14:51:29.937Z,25.90
2019-03-31T14:53:59.806Z,24.50
2019-03-31T14:56:29.697Z,23.60
2019-03-31T14:58:59.681Z,22.70
2019-03-31T15:01:29.541Z,22.20
2019-03-31T15:03:59.541Z,22.00
2019-03-31T15:06:29.976Z,22.10
2019-03-31T15:09:00.560Z,23.50
2019-03-31T15:11:31.220Z,23.10
2019-03-31T15:14:01.882Z,23.30
2019-03-31T15:16:31.788Z,23.40
2019-03-31T15:19:01.637Z,22.90
2019-03-31T15:21:31.583Z,23.30
2019-03-31T15:24:01.415Z,23.30
2019-03-31T15:26:31.377Z,23.80
2019-03-31T15:29:01.337Z,24.30
2019-03-31T15:31:31.187Z,23.70
2019-03-31T15:34:01.147Z,23.60
2019-03-31T15:36:31.017Z,24.10
2019-03-31T15:39:08.623Z,24.30
2019-03-31T15:41:33.609Z,24.80
2019-03-31T15:44:03.561Z,24.90
2019-03-31T15:46:33.524Z,24.70
2019-03-31T15:49:03.624Z,24.90
2019-03-31T15:51:33.478Z,23.80
2019-03-31T15:54:03.453Z,23.50
2019-03-31T15:56:33.341Z,23.60
2019-03-31T15:59:03.410Z,23.90
2019-03-31T16:01:33.339Z,24.40
2019-03-31T16:04:03.290Z,24.20
2019-03-31T16:06:33.259Z,24.80
2019-03-31T16:09:02.694Z,24.80
2019-03-31T16:11:32.108Z,24.80
2019-03-31T16:14:01.546Z,25.90
2019-03-31T16:16:31.041Z,27.90
2019-03-31T16:19:01.185Z,28.30
2019-03-31T16:21:30.620Z,29.60
2019-03-31T16:24:00.993Z,29.80
2019-03-31T16:26:30.338Z,30.30
2019-03-31T16:28:59.704Z,30.80
2019-03-31T16:31:29.053Z,30.90
2019-03-31T16:33:58.612Z,30.80
2019-03-31T16:36:28.198Z,30.40
2019-03-31T16:38:57.778Z,30.80
2019-03-31T16:41:27.205Z,30.80
2019-03-31T16:43:56.728Z,31.70
2019-03-31T16:46:26.090Z,31.80
2019-03-31T16:48:56.456Z,32.60
2019-03-31T16:51:27.849Z,31.90
2019-03-31T16:53:57.201Z,31.50
2019-03-31T16:56:26.713Z,31.80
2019-03-31T16:58:56.060Z,31.60
2019-03-31T17:01:25.428Z,31.50
2019-03-31T17:03:54.876Z,31.60
2019-03-31T17:06:24.253Z,31.30
2019-03-31T17:08:54.552Z,31.70
2019-03-31T17:11:23.909Z,33.40
2019-03-31T17:13:53.300Z,34.30
2019-03-31T17:16:23.682Z,35.00
2019-03-31T17:18:53.433Z,35.90
2019-03-31T17:21:23.025Z,36.40
2019-03-31T17:23:52.667Z,36.70
2019-03-31T17:26:23.041Z,36.60
2019-03-31T17:28:52.346Z,37.30
2019-03-31T17:31:22.700Z,37.50
2019-03-31T17:33:52.066Z,38.40
2019-03-31T17:36:22.446Z,38.40
2019-03-31T17:38:51.848Z,38.50
2019-03-31T17:41:22.429Z,38.80
2019-03-31T17:43:51.730Z,39.40
2019-03-31T17:46:21.088Z,39.10
2019-03-31T17:48:50.443Z,38.30
2019-03-31T17:51:19.877Z,39.00
2019-03-31T17:53:49.289Z,39.00
2019-03-31T17:56:18.693Z,39.80
2019-03-31T17:58:49.182Z,40.20
2019-03-31T18:01:20.098Z,38.70
2019-03-31T18:03:50.472Z,38.20
2019-03-31T18:06:19.826Z,38.90
2019-03-31T18:08:49.194Z,39.20
2019-03-31T18:11:18.537Z,38.60
2019-03-31T18:13:47.889Z,38.70
2019-03-31T18:16:18.325Z,38.80
2019-03-31T18:18:47.664Z,38.40
2019-03-31T18:21:17.421Z,38.50
2019-03-31T18:23:46.814Z,39.20
2019-03-31T18:26:17.234Z,39.90
2019-03-31T18:28:46.610Z,39.50
2019-03-31T18:31:16.986Z,40.20
2019-03-31T18:33:46.343Z,40.90
2019-03-31T18:36:15.937Z,41.30
2019-03-31T18:38:45.357Z,44.10
2019-03-31T18:41:14.714Z,45.90
2019-03-31T18:43:51.288Z,43.80
2019-03-31T18:46:15.040Z,42.00
2019-03-31T18:48:44.463Z,40.80
2019-03-31T18:51:14.879Z,40.80
2019-03-31T18:54:03.174Z,41.40
2019-03-31T18:56:50.678Z,41.60
2019-03-31T18:59:51.099Z,42.00
2019-03-31T19:02:48.866Z,42.50
2019-03-31T19:05:35.820Z,42.80
2019-03-31T19:08:27.050Z,43.00
2019-03-31T19:11:33.937Z,42.90
2019-03-31T19:14:25.541Z,42.70
2019-03-31T19:17:13.225Z,42.70
2019-03-31T19:20:07.462Z,43.50
2019-03-31T19:22:54.734Z,44.20
2019-03-31T19:25:32.960Z,43.50
2019-03-31T19:28:19.898Z,42.80
2019-03-31T19:31:08.517Z,43.30
2019-03-31T19:34:12.783Z,43.80
2019-03-31T19:37:01.646Z,43.90
2019-03-31T19:39:49.921Z,44.20
2019-03-31T19:42:44.065Z,44.60
2019-03-31T19:45:33.080Z,46.30
2019-03-31T19:48:37.264Z,44.80
2019-03-31T19:51:25.549Z,45.90
2019-03-31T19:54:20.256Z,45.60
2019-03-31T19:57:21.176Z,46.40
2019-03-31T20:00:08.446Z,46.40
2019-03-31T20:02:59.654Z,46.90
2019-03-31T20:05:42.894Z,47.60
2019-03-31T20:08:40.604Z,48.20
2019-03-31T20:11:14.688Z,48.80
2019-03-31T20:14:06.103Z,47.20
2019-03-31T20:16:57.593Z,47.30
2019-03-31T20:19:58.407Z,48.10
2019-03-31T20:22:47.646Z,47.90
2019-03-31T20:25:24.677Z,47.70
2019-03-31T20:28:01.803Z,48.20
2019-03-31T20:31:03.122Z,48.20
2019-03-31T20:34:06.410Z,48.60
2019-03-31T20:36:41.721Z,48.40
2019-03-31T20:39:20.990Z,47.50
2019-03-31T20:41:55.245Z,47.70
2019-03-31T20:44:24.707Z,47.50
2019-03-31T20:46:54.196Z,47.80
2019-03-31T20:49:23.554Z,47.90
2019-03-31T20:51:52.986Z,48.00
2019-03-31T20:54:22.346Z,48.20
2019-03-31T20:56:52.746Z,48.60
2019-03-31T20:59:22.129Z,49.20
2019-03-31T21:01:52.557Z,49.30
2019-03-31T21:04:22.675Z,49.00
2019-03-31T21:06:52.038Z,49.60
2019-03-31T21:09:22.404Z,49.60
2019-03-31T21:11:52.760Z,50.40
2019-03-31T21:14:23.177Z,50.00
2019-03-31T21:16:53.097Z,49.60
2019-03-31T21:19:22.414Z,50.10
2019-03-31T21:21:51.761Z,50.30
2019-03-31T21:24:21.122Z,50.20
2019-03-31T21:26:51.504Z,49.70
2019-03-31T21:29:20.911Z,49.80
2019-03-31T21:31:50.329Z,49.30
2019-03-31T21:34:20.761Z,49.70
2019-03-31T21:36:51.158Z,50.20
2019-03-31T21:39:21.578Z,50.30
2019-03-31T21:44:19.653Z,48.70
2019-03-31T21:46:48.997Z,48.90
2019-03-31T21:49:18.358Z,48.80
2019-03-31T21:51:48.647Z,49.10
2019-03-31T21:54:17.981Z,49.20
2019-03-31T21:56:47.280Z,49.30
2019-03-31T21:59:16.658Z,50.10
2019-03-31T22:01:46.078Z,49.60
2019-03-31T22:04:15.442Z,49.70
2019-03-31T22:06:44.788Z,49.50
2019-03-31T22:09:14.166Z,50.20
2019-03-31T22:11:43.493Z,49.70
2019-03-31T22:14:12.845Z,50.20
2019-03-31T22:16:42.192Z,50.00
2019-03-31T22:19:11.540Z,50.40
2019-03-31T22:21:40.846Z,50.80
2019-03-31T22:24:10.274Z,50.70
2019-03-31T22:26:39.557Z,50.80
2019-03-31T22:29:27.945Z,51.00
2019-03-31T22:31:57.277Z,51.00
2019-03-31T22:36:55.377Z,51.80
2019-03-31T22:39:24.686Z,51.90
2019-03-31T22:41:54.068Z,52.40
2019-03-31T22:44:23.387Z,52.70
2019-03-31T22:46:54.386Z,53.10
2019-03-31T22:51:52.501Z,52.80
2019-03-31T22:54:21.817Z,52.40
2019-03-31T22:56:51.473Z,52.30
2019-03-31T23:01:49.617Z,52.00
2019-03-31T23:04:18.947Z,52.40
2019-03-31T23:06:48.364Z,52.10
2019-03-31T23:09:17.653Z,52.10
2019-03-31T23:11:47.020Z,51.00
2019-03-31T23:14:16.310Z,52.10
2019-03-31T23:16:45.617Z,52.50
2019-03-31T23:19:14.961Z,52.10
2019-03-31T23:21:44.262Z,52.60
2019-03-31T23:24:13.560Z,53.10
2019-03-31T23:26:42.927Z,52.90
2019-03-31T23:29:12.252Z,52.70
2019-03-31T23:31:41.665Z,52.60
2019-03-31T23:34:11.000Z,53.10
2019-03-31T23:39:09.118Z,53.90
2019-03-31T23:41:38.462Z,54.20
2019-03-31T23:44:07.813Z,54.50
2019-03-31T23:46:37.145Z,55.00
2019-03-31T23:49:06.441Z,55.50
2019-03-31T23:51:35.791Z,56.00
2019-03-31T23:54:05.128Z,56.00
2019-03-31T23:59:03.254Z,56.50
